KRBG

Roseburg Regional Airport

Roseburg, Oregon, USA
METAR KRBG 280053Z AUTO 02011G16KT 10SM CLR 27/07 A3010 RMK AO2 SLP190 T02720072
Observed Flight Rules
May-28 @ 00:53 UTC (27 minutes ago) Visual Flight Rules
Wind Visibility Clouds
20° at 11 knots
 Gusting to 16 knots
10 miles
  • Clear skies
Temperatures Readings
Current 27°C / 81°F
Dewpoint 7°C / 45°F
Humidity 28%
Altimeter 30.1" Hg
Pressure 1019 hPa
Elevation 154
METAR KRBG 280053Z AUTO 02011G16KT 10SM CLR 27/07 A3010 RMK AO2 SLP190 T02720072
Observed Flight Rules
May-28 @ 00:53 UTC
(27 minutes ago)
VFR
Wind Visibility
20° at 11 knots
 Gusting to 16 knots
10 miles
Clouds
  • Clear skies
Temperature Dewpoint
27°C / 81°F 7°C / 45°F
Humidity Altimeter Pressure
28% 30.1" Hg 1019 hPa